Terminal Aerodrome Forecast
Issued by NWS

Home | Current Version | Previous Version | Graphics & Text | Print | Product List | Glossary On
Versions: 1 2 3 4 5 6 7 8 9 10 11 12 13 14 15 16 17 18 19
000
FTUS42 KMHX 241600 AAA
TAFISO
TAF AMD
KISO 241607Z 2416/2512 30010G20KT P6SM VCTS BKN050CB
      TEMPO 2416/2418 1/2SM TSRA BKN005 OVC010CB
     FM250200 33005KT P6SM SCT030 BKN120
     FM250600 00000KT 3SM BR SCT007
      AMD LTD TO CLD VIS AND WIND=

USA.gov is the U.S. government's official web portal to all federal, state and local government web resources and services.